createdAt,value
2018-09-30T00:00:53.633Z,102105.39
2018-09-30T00:03:22.013Z,102108.59
2018-09-30T00:05:50.365Z,102093.91
2018-09-30T00:08:18.768Z,102094.28
2018-09-30T00:10:47.133Z,102086.20
2018-09-30T00:13:18.662Z,102081.53
2018-09-30T00:15:47.079Z,102086.39
2018-09-30T00:18:15.458Z,102082.99
2018-09-30T00:20:43.922Z,102087.42
2018-09-30T00:23:12.349Z,102081.91
2018-09-30T00:25:45.977Z,102075.04
2018-09-30T00:28:14.336Z,102074.63
2018-09-30T00:30:42.700Z,102068.66
2018-09-30T00:33:11.069Z,102066.59
2018-09-30T00:35:39.477Z,102068.80
2018-09-30T00:38:07.861Z,102068.50
2018-09-30T00:40:36.243Z,102066.97
2018-09-30T00:43:04.621Z,102062.27
2018-09-30T00:45:32.993Z,102057.32
2018-09-30T00:48:03.500Z,102050.28
2018-09-30T00:50:31.905Z,102045.46
2018-09-30T00:53:00.244Z,102057.33
2018-09-30T00:55:28.624Z,102054.72
2018-09-30T00:57:58.048Z,102057.43
2018-09-30T01:00:26.548Z,102057.52
2018-09-30T01:02:54.900Z,102059.16
2018-09-30T01:05:23.301Z,102054.34
2018-09-30T01:07:51.819Z,102046.69
2018-09-30T01:10:20.221Z,102043.77
2018-09-30T01:12:48.599Z,102029.63
2018-09-30T01:15:17.030Z,102026.72
2018-09-30T01:17:45.373Z,102024.14
2018-09-30T01:20:13.744Z,102021.53
2018-09-30T01:22:44.060Z,102019.33
2018-09-30T01:25:12.444Z,102019.45
2018-09-30T01:27:40.808Z,102014.84
2018-09-30T01:30:09.196Z,102016.74
2018-09-30T01:32:37.560Z,102012.08
2018-09-30T01:35:05.949Z,102020.06
2018-09-30T01:37:34.361Z,102014.02
2018-09-30T01:40:02.760Z,102004.88
2018-09-30T01:42:32.109Z,102001.42
2018-09-30T01:45:00.480Z,101993.05
2018-09-30T01:47:28.844Z,101993.77
2018-09-30T01:49:57.217Z,101981.71
2018-09-30T01:52:58.296Z,101980.13
2018-09-30T01:55:26.696Z,101981.05
2018-09-30T01:57:55.052Z,101978.31
2018-09-30T02:00:23.429Z,101974.98
2018-09-30T02:02:51.788Z,101962.97
2018-09-30T02:05:20.153Z,101963.79
2018-09-30T02:07:49.068Z,101961.92
2018-09-30T02:10:17.769Z,101959.88
2018-09-30T02:12:46.493Z,101961.19
2018-09-30T02:15:14.902Z,101952.48
2018-09-30T02:17:44.381Z,101954.08
2018-09-30T02:20:12.724Z,101944.08
2018-09-30T02:22:41.076Z,101943.59
2018-09-30T02:25:09.412Z,101938.25
2018-09-30T02:27:37.752Z,101935.95
2018-09-30T02:30:06.386Z,101932.21
2018-09-30T02:32:34.716Z,101926.34
2018-09-30T02:35:03.067Z,101922.31
2018-09-30T02:37:31.444Z,101917.36
2018-09-30T02:40:00.885Z,101917.47
2018-09-30T02:42:29.233Z,101906.44
2018-09-30T02:44:57.606Z,101906.62
2018-09-30T02:47:25.937Z,101904.11
2018-09-30T02:49:54.292Z,101901.40
2018-09-30T02:52:22.645Z,101886.08
2018-09-30T02:54:51.004Z,101892.41
2018-09-30T02:57:19.369Z,101890.00
2018-09-30T02:59:47.717Z,101886.55
2018-09-30T03:02:16.057Z,101877.93
2018-09-30T03:04:44.427Z,101877.45
2018-09-30T03:07:18.140Z,101876.08
2018-09-30T03:09:46.488Z,101871.02
2018-09-30T03:12:14.860Z,101870.11
2018-09-30T03:14:43.209Z,101865.14
2018-09-30T03:17:11.568Z,101863.47
2018-09-30T03:19:39.913Z,101863.47
2018-09-30T03:22:08.277Z,101864.48
2018-09-30T03:24:36.739Z,101857.00
2018-09-30T03:27:05.081Z,101860.09
2018-09-30T03:29:33.421Z,101853.73
2018-09-30T03:32:01.779Z,101844.73
2018-09-30T03:34:30.119Z,101843.98
2018-09-30T03:36:58.492Z,101833.87
2018-09-30T03:39:26.884Z,101828.08
2018-09-30T03:41:55.228Z,101829.41
2018-09-30T03:44:23.612Z,101815.59
2018-09-30T03:46:51.984Z,101819.14
2018-09-30T03:49:20.346Z,101816.77
2018-09-30T03:51:48.722Z,101818.58
2018-09-30T03:54:17.090Z,101813.91
2018-09-30T03:56:45.516Z,101807.34
2018-09-30T03:59:13.845Z,101806.89
2018-09-30T04:01:42.234Z,101806.35
2018-09-30T04:04:10.606Z,101814.31
2018-09-30T04:06:38.965Z,101811.52
2018-09-30T04:09:08.724Z,101811.52
2018-09-30T04:11:37.440Z,101805.36
2018-09-30T04:14:05.843Z,101801.91
2018-09-30T04:16:34.228Z,101806.66
2018-09-30T04:19:02.757Z,101802.64
2018-09-30T04:21:31.122Z,101800.69
2018-09-30T04:24:07.316Z,101791.97
2018-09-30T04:26:37.520Z,101797.27
2018-09-30T04:29:06.178Z,101805.50
2018-09-30T04:31:34.824Z,101798.84
2018-09-30T04:34:03.681Z,101801.48
2018-09-30T04:36:33.192Z,101794.30
2018-09-30T04:39:01.661Z,101793.95
2018-09-30T04:41:30.666Z,101793.58
2018-09-30T04:43:59.232Z,101787.62
2018-09-30T04:46:27.953Z,101786.83
2018-09-30T04:48:56.289Z,101784.52
2018-09-30T04:51:24.625Z,101772.87
2018-09-30T04:53:52.994Z,101774.90
2018-09-30T04:56:21.380Z,101768.52
2018-09-30T04:58:49.711Z,101768.14
2018-09-30T05:01:18.040Z,101763.49
2018-09-30T05:03:46.372Z,101769.09
2018-09-30T05:06:14.823Z,101768.54
2018-09-30T05:08:43.175Z,101769.84
2018-09-30T05:11:11.539Z,101763.16
2018-09-30T05:13:39.916Z,101763.31
2018-09-30T05:16:08.338Z,101758.27
2018-09-30T05:18:36.635Z,101758.48
2018-09-30T05:21:04.987Z,101744.98
2018-09-30T05:23:33.333Z,101747.61
2018-09-30T05:26:01.740Z,101747.00
2018-09-30T05:28:30.065Z,101743.08
2018-09-30T05:30:58.417Z,101742.94
2018-09-30T05:33:26.756Z,101745.16
2018-09-30T05:35:55.197Z,101733.51
2018-09-30T05:38:23.534Z,101734.19
2018-09-30T05:40:51.892Z,101734.84
2018-09-30T05:43:20.246Z,101742.55
2018-09-30T05:45:48.616Z,101738.64
2018-09-30T05:48:16.939Z,101730.09
2018-09-30T05:50:45.284Z,101731.70
2018-09-30T05:53:14.679Z,101731.28
2018-09-30T05:55:43.064Z,101735.13
2018-09-30T05:58:11.396Z,101734.87
2018-09-30T06:00:40.061Z,101725.36
2018-09-30T06:03:08.553Z,101720.64
2018-09-30T06:05:36.908Z,101724.69
2018-09-30T06:08:05.266Z,101721.97
2018-09-30T06:10:33.597Z,101722.91
2018-09-30T06:13:03.052Z,101720.30
2018-09-30T06:15:31.419Z,101716.81
2018-09-30T06:18:00.184Z,101717.86
2018-09-30T06:20:28.525Z,101719.61
2018-09-30T06:22:56.905Z,101717.33
2018-09-30T06:25:25.318Z,101722.33
2018-09-30T06:27:53.704Z,101731.00
2018-09-30T06:30:23.136Z,101731.60
2018-09-30T06:32:51.521Z,101724.45
2018-09-30T06:35:19.905Z,101719.56
2018-09-30T06:37:48.265Z,101722.30
2018-09-30T06:40:16.664Z,101726.20
2018-09-30T06:42:45.017Z,101729.25
2018-09-30T06:45:13.421Z,101729.08
2018-09-30T06:47:41.776Z,101729.77
2018-09-30T06:50:10.153Z,101724.56
2018-09-30T06:52:38.528Z,101728.23
2018-09-30T06:55:06.976Z,101718.50
2018-09-30T06:57:35.369Z,101715.41
2018-09-30T07:00:04.797Z,101713.40
2018-09-30T07:02:33.161Z,101714.38
2018-09-30T07:05:01.614Z,101721.33
2018-09-30T07:07:30.964Z,101718.55
2018-09-30T07:09:59.345Z,101716.84
2018-09-30T07:12:27.722Z,101717.99
2018-09-30T07:14:56.110Z,101708.64
2018-09-30T07:17:24.510Z,101718.10
2018-09-30T07:19:52.888Z,101712.53
2018-09-30T07:22:21.344Z,101702.17
2018-09-30T07:24:51.766Z,101707.08
2018-09-30T07:27:20.121Z,101706.18
2018-09-30T07:29:52.329Z,101706.48
2018-09-30T07:32:20.684Z,101700.40
2018-09-30T07:34:49.179Z,101688.78
2018-09-30T07:37:17.656Z,101695.27
2018-09-30T07:39:46.041Z,101691.47
2018-09-30T07:42:14.401Z,101687.80
2018-09-30T07:44:42.981Z,101691.42
2018-09-30T07:47:11.331Z,101697.14
2018-09-30T07:49:39.740Z,101694.82
2018-09-30T07:52:08.137Z,101695.37
2018-09-30T07:54:37.510Z,101704.17
2018-09-30T07:57:06.230Z,101695.42
2018-09-30T07:59:34.620Z,101697.69
2018-09-30T08:02:02.998Z,101691.37
2018-09-30T08:04:31.353Z,101686.23
2018-09-30T08:07:01.797Z,101688.30
2018-09-30T08:09:31.173Z,101698.88
2018-09-30T08:11:59.505Z,101703.69
2018-09-30T08:14:27.903Z,101704.45
2018-09-30T08:16:56.879Z,101708.18
2018-09-30T08:19:25.852Z,101699.03
2018-09-30T08:21:55.291Z,101710.80
2018-09-30T08:24:24.564Z,101704.36
2018-09-30T08:26:52.866Z,101700.94
2018-09-30T08:29:21.219Z,101697.27
2018-09-30T08:31:49.677Z,101695.00
2018-09-30T08:34:18.028Z,101697.63
2018-09-30T08:36:46.460Z,101689.18
2018-09-30T08:39:14.784Z,101679.80
2018-09-30T08:41:43.146Z,101680.78
2018-09-30T08:44:11.555Z,101676.00
2018-09-30T08:46:39.899Z,101683.05
2018-09-30T08:49:09.256Z,101668.58
2018-09-30T08:51:37.605Z,101666.34
2018-09-30T08:54:07.266Z,101672.16
2018-09-30T08:56:37.733Z,101672.64
2018-09-30T08:59:06.137Z,101666.39
2018-09-30T09:01:34.473Z,101657.61
2018-09-30T09:04:02.841Z,101649.86
2018-09-30T09:06:31.229Z,101645.45
2018-09-30T09:08:59.580Z,101642.74
2018-09-30T09:11:27.925Z,101641.27
2018-09-30T09:13:56.280Z,101644.08
2018-09-30T09:16:24.605Z,101640.27
2018-09-30T09:18:52.955Z,101621.19
2018-09-30T09:21:22.393Z,101618.30
2018-09-30T09:23:50.772Z,101617.16
2018-09-30T09:26:19.129Z,101602.63
2018-09-30T09:28:47.485Z,101615.45
2018-09-30T09:31:15.840Z,101603.72
2018-09-30T09:33:44.189Z,101601.37
2018-09-30T09:36:12.532Z,101613.13
2018-09-30T09:38:40.873Z,101602.07
2018-09-30T09:41:09.236Z,101595.44
2018-09-30T09:43:38.629Z,101583.73
2018-09-30T09:46:07.001Z,101585.14
2018-09-30T09:48:35.328Z,101591.25
2018-09-30T09:51:04.288Z,101593.06
2018-09-30T09:53:32.635Z,101581.07
2018-09-30T09:56:01.132Z,101577.52
2018-09-30T09:58:29.456Z,101579.52
2018-09-30T10:01:02.053Z,101570.55
2018-09-30T10:03:30.460Z,101572.70
2018-09-30T10:05:58.820Z,101566.87
2018-09-30T10:08:27.150Z,101557.95
2018-09-30T10:10:55.513Z,101572.02
2018-09-30T10:13:23.869Z,101557.69
2018-09-30T10:15:52.213Z,101554.97
2018-09-30T10:18:20.557Z,101545.24
2018-09-30T10:20:48.952Z,101548.67
2018-09-30T10:23:17.297Z,101545.09
2018-09-30T10:25:45.661Z,101537.27
2018-09-30T10:28:14.013Z,101539.31
2018-09-30T10:30:42.387Z,101533.88
2018-09-30T10:33:10.737Z,101541.23
2018-09-30T10:35:39.085Z,101534.42
2018-09-30T10:38:07.485Z,101534.16
2018-09-30T10:40:35.877Z,101532.69
2018-09-30T10:43:04.192Z,101539.20
2018-09-30T10:45:32.500Z,101528.63
2018-09-30T10:48:00.844Z,101535.15
2018-09-30T10:50:29.156Z,101529.48
2018-09-30T10:52:57.472Z,101528.91
2018-09-30T10:55:26.914Z,101523.42
2018-09-30T10:57:55.184Z,101521.50
2018-09-30T11:00:23.590Z,101518.25
2018-09-30T11:02:53.663Z,101524.13
2018-09-30T11:05:22.024Z,101522.72
2018-09-30T11:07:50.363Z,101521.67
2018-09-30T11:10:18.888Z,101526.36
2018-09-30T11:12:47.203Z,101519.05
2018-09-30T11:15:15.516Z,101511.30
2018-09-30T11:17:44.928Z,101509.27
2018-09-30T11:20:13.248Z,101510.29
2018-09-30T11:22:41.605Z,101500.02
2018-09-30T11:25:09.972Z,101481.06
2018-09-30T11:27:38.358Z,101477.97
2018-09-30T11:30:07.741Z,101479.24
2018-09-30T11:32:36.102Z,101468.66
2018-09-30T11:35:04.541Z,101462.62
2018-09-30T11:37:33.012Z,101470.07
2018-09-30T11:40:01.342Z,101468.81
2018-09-30T11:42:29.687Z,101466.75
2018-09-30T11:44:58.045Z,101465.16
2018-09-30T11:47:26.414Z,101468.66
2018-09-30T11:49:55.759Z,101456.92
2018-09-30T11:52:24.121Z,101469.32
2018-09-30T11:54:52.482Z,101465.10
2018-09-30T11:57:20.836Z,101463.02
2018-09-30T11:59:49.244Z,101454.14
2018-09-30T12:02:17.688Z,101449.50
2018-09-30T12:04:46.014Z,101461.33
2018-09-30T12:07:14.381Z,101444.03
2018-09-30T12:09:42.761Z,101443.87
2018-09-30T12:12:11.597Z,101447.14
2018-09-30T12:14:39.972Z,101445.59
2018-09-30T12:17:08.311Z,101453.84
2018-09-30T12:19:36.668Z,101446.40
2018-09-30T12:22:05.313Z,101441.85
2018-09-30T12:24:33.873Z,101438.81
2018-09-30T12:27:02.224Z,101440.52
2018-09-30T12:29:31.586Z,101442.22
2018-09-30T12:31:59.932Z,101447.07
2018-09-30T12:34:28.276Z,101434.95
2018-09-30T12:36:57.916Z,101432.30
2018-09-30T12:39:26.451Z,101428.80
2018-09-30T12:41:54.728Z,101419.42
2018-09-30T12:44:24.085Z,101421.30
2018-09-30T12:46:52.438Z,101413.06
2018-09-30T12:49:20.798Z,101421.96
2018-09-30T12:51:49.213Z,101412.89
2018-09-30T12:54:17.589Z,101408.72
2018-09-30T12:56:45.937Z,101420.98
2018-09-30T12:59:15.409Z,101413.53
2018-09-30T13:01:43.765Z,101407.64
2018-09-30T13:04:12.100Z,101411.77
2018-09-30T13:06:40.476Z,101409.48
2018-09-30T13:09:09.586Z,101399.68
2018-09-30T13:11:37.981Z,101408.61
2018-09-30T13:14:06.736Z,101403.77
2018-09-30T13:16:36.157Z,101397.61
2018-09-30T13:19:04.529Z,101401.73
2018-09-30T13:21:32.892Z,101388.38
2018-09-30T13:24:01.281Z,101385.07
2018-09-30T13:26:29.608Z,101387.92
2018-09-30T13:28:58.013Z,101391.20
2018-09-30T13:31:26.344Z,101386.00
2018-09-30T13:33:54.768Z,101392.63
2018-09-30T13:36:24.013Z,101386.59
2018-09-30T13:38:53.452Z,101381.54
2018-09-30T13:41:21.929Z,101406.09
2018-09-30T13:43:50.225Z,101383.76
2018-09-30T13:46:18.651Z,101377.03
2018-09-30T13:48:46.925Z,101386.07
2018-09-30T13:51:15.294Z,101384.02
2018-09-30T13:53:43.628Z,101387.47
2018-09-30T13:56:12.036Z,101383.34
2018-09-30T13:58:40.369Z,101391.59
2018-09-30T14:01:08.949Z,101386.36
2018-09-30T14:03:37.568Z,101378.44
2018-09-30T14:06:05.957Z,101384.36
2018-09-30T14:08:34.324Z,101385.70
2018-09-30T14:11:03.712Z,101392.73
2018-09-30T14:13:32.052Z,101381.41
2018-09-30T14:16:00.513Z,101377.31
2018-09-30T14:18:29.677Z,101380.98
2018-09-30T14:20:58.000Z,101396.62
2018-09-30T14:23:26.440Z,101374.13
2018-09-30T14:25:54.789Z,101392.24
2018-09-30T14:28:23.118Z,101387.31
2018-09-30T14:30:51.476Z,101386.55
2018-09-30T14:33:19.834Z,101374.28
2018-09-30T14:35:49.203Z,101389.96
2018-09-30T14:38:17.942Z,101381.56
2018-09-30T14:40:46.277Z,101399.13
2018-09-30T14:43:14.601Z,101382.80
2018-09-30T14:45:42.948Z,101381.83
2018-09-30T14:48:11.349Z,101388.07
2018-09-30T14:50:39.628Z,101380.05
2018-09-30T14:53:08.173Z,101381.91
2018-09-30T14:55:36.502Z,101377.61
2018-09-30T14:58:05.576Z,101372.75
2018-09-30T15:00:33.937Z,101375.38
2018-09-30T15:03:02.321Z,101371.91
2018-09-30T15:05:30.669Z,101364.83
2018-09-30T15:07:59.013Z,101373.16
2018-09-30T15:10:27.385Z,101370.03
2018-09-30T15:12:56.824Z,101374.61
2018-09-30T15:15:25.169Z,101368.73
2018-09-30T15:17:54.673Z,101362.97
2018-09-30T15:20:23.017Z,101363.31
2018-09-30T15:22:51.449Z,101359.24
2018-09-30T15:25:19.786Z,101355.47
2018-09-30T15:27:48.189Z,101356.88
2018-09-30T15:30:17.557Z,101354.76
2018-09-30T15:32:46.952Z,101356.33
2018-09-30T15:35:15.381Z,101351.73
2018-09-30T15:37:43.772Z,101349.52
2018-09-30T15:40:13.119Z,101352.37
2018-09-30T15:42:41.602Z,101351.83
2018-09-30T15:45:10.270Z,101350.67
2018-09-30T15:47:38.626Z,101344.66
2018-09-30T15:50:08.069Z,101347.14
2018-09-30T15:52:36.442Z,101346.63
2018-09-30T15:55:04.817Z,101345.70
2018-09-30T15:57:33.217Z,101345.36
2018-09-30T16:00:01.546Z,101342.34
2018-09-30T16:02:29.875Z,101338.97
2018-09-30T16:04:58.347Z,101334.27
2018-09-30T16:07:26.689Z,101337.95
2018-09-30T16:09:55.031Z,101336.66
2018-09-30T16:12:23.614Z,101337.87
2018-09-30T16:14:51.956Z,101333.75
2018-09-30T16:17:20.292Z,101337.78
2018-09-30T16:19:49.724Z,101333.88
2018-09-30T16:22:18.048Z,101330.73
2018-09-30T16:24:46.388Z,101334.81
2018-09-30T16:27:14.765Z,101333.83
2018-09-30T16:29:44.150Z,101337.40
2018-09-30T16:32:12.452Z,101340.59
2018-09-30T16:34:40.811Z,101341.77
2018-09-30T16:37:09.261Z,101348.59
2018-09-30T16:39:37.618Z,101343.32
2018-09-30T16:42:07.169Z,101338.87
2018-09-30T16:44:35.567Z,101334.77
2018-09-30T16:47:03.912Z,101331.20
2018-09-30T16:49:32.424Z,101330.70
2018-09-30T16:52:00.771Z,101334.47
2018-09-30T16:54:30.169Z,101335.97
2018-09-30T16:56:59.647Z,101338.20
2018-09-30T16:59:28.006Z,101341.05
2018-09-30T17:01:56.352Z,101338.55
2018-09-30T17:04:24.756Z,101335.44
2018-09-30T17:06:54.118Z,101334.55
2018-09-30T17:09:22.540Z,101337.19
2018-09-30T17:11:50.997Z,101337.50
2018-09-30T17:14:19.393Z,101330.85
2018-09-30T17:16:47.810Z,101333.83
2018-09-30T17:19:17.293Z,101337.84
2018-09-30T17:21:46.954Z,101332.37
2018-09-30T17:24:15.330Z,101329.11
2018-09-30T17:26:43.721Z,101332.52
2018-09-30T17:29:12.141Z,101338.19
2018-09-30T17:31:40.534Z,101332.84
2018-09-30T17:34:08.957Z,101330.38
2018-09-30T17:36:37.337Z,101340.51
2018-09-30T17:39:07.946Z,101334.75
2018-09-30T17:41:37.385Z,101345.63
2018-09-30T17:44:05.983Z,101346.18
2018-09-30T17:46:35.473Z,101342.45
2018-09-30T17:49:04.034Z,101343.69
2018-09-30T17:51:33.462Z,101345.15
2018-09-30T17:54:01.896Z,101346.02
2018-09-30T17:56:30.312Z,101346.03
2018-09-30T17:58:59.757Z,101347.83
2018-09-30T18:01:28.235Z,101347.69
2018-09-30T18:03:56.631Z,101348.28
2018-09-30T18:06:24.919Z,101344.71
2018-09-30T18:08:53.258Z,101341.52
2018-09-30T18:11:21.572Z,101342.89
2018-09-30T18:13:49.919Z,101343.73
2018-09-30T18:16:18.255Z,101333.00
2018-09-30T18:18:47.659Z,101330.56
2018-09-30T18:21:16.026Z,101333.00
2018-09-30T18:23:44.474Z,101332.60
2018-09-30T18:26:12.773Z,101326.81
2018-09-30T18:28:41.136Z,101325.43
2018-09-30T18:31:09.652Z,101331.48
2018-09-30T18:33:38.059Z,101324.45
2018-09-30T18:36:06.486Z,101325.64
2018-09-30T18:38:34.845Z,101320.66
2018-09-30T18:41:03.245Z,101321.23
2018-09-30T18:43:31.613Z,101315.69
2018-09-30T18:45:59.986Z,101321.00
2018-09-30T18:48:28.379Z,101314.42
2018-09-30T18:50:56.757Z,101313.19
2018-09-30T18:53:26.128Z,101307.69
2018-09-30T18:55:54.517Z,101310.61
2018-09-30T18:58:22.845Z,101310.95
2018-09-30T19:00:51.202Z,101312.91
2018-09-30T19:03:19.627Z,101319.69
2018-09-30T19:05:47.946Z,101319.43
2018-09-30T19:08:16.349Z,101318.46
2018-09-30T19:10:44.707Z,101314.36
2018-09-30T19:13:13.092Z,101301.39
2018-09-30T19:15:41.590Z,101305.97
2018-09-30T19:18:10.980Z,101306.65
2018-09-30T19:20:39.344Z,101309.53
2018-09-30T19:23:09.776Z,101305.85
2018-09-30T19:25:38.129Z,101300.63
2018-09-30T19:28:06.516Z,101292.52
2018-09-30T19:30:35.921Z,101293.59
2018-09-30T19:33:04.273Z,101298.37
2018-09-30T19:35:32.648Z,101302.00
2018-09-30T19:38:01.025Z,101302.48
2018-09-30T19:40:30.365Z,101294.09
2018-09-30T19:42:58.736Z,101296.14
2018-09-30T19:45:28.181Z,101293.88
2018-09-30T19:47:57.603Z,101293.45
2018-09-30T19:50:25.945Z,101288.33
2018-09-30T19:52:54.316Z,101291.45
2018-09-30T19:55:22.678Z,101288.58
2018-09-30T19:57:51.157Z,101287.38
2018-09-30T20:00:19.529Z,101286.69
2018-09-30T20:02:47.896Z,101284.88
2018-09-30T20:05:17.301Z,101284.33
2018-09-30T20:07:45.669Z,101282.21
2018-09-30T20:10:15.297Z,101292.37
2018-09-30T20:12:43.648Z,101287.86
2018-09-30T20:15:12.085Z,101293.47
2018-09-30T20:17:40.409Z,101285.95
2018-09-30T20:20:08.778Z,101287.54
2018-09-30T20:22:37.140Z,101285.69
2018-09-30T20:25:05.577Z,101292.80
2018-09-30T20:27:33.877Z,101287.89
2018-09-30T20:30:03.256Z,101285.81
2018-09-30T20:32:31.689Z,101280.08
2018-09-30T20:35:00.126Z,101280.77
2018-09-30T20:37:28.563Z,101288.25
2018-09-30T20:39:56.901Z,101286.69
2018-09-30T20:42:25.261Z,101283.36
2018-09-30T20:44:54.648Z,101285.29
2018-09-30T20:47:23.019Z,101279.62
2018-09-30T20:49:51.379Z,101277.95
2018-09-30T20:52:20.939Z,101271.75
2018-09-30T20:54:49.282Z,101265.91
2018-09-30T20:57:21.344Z,101269.99
2018-09-30T20:59:50.689Z,101266.38
2018-09-30T21:02:19.064Z,101262.03
2018-09-30T21:04:47.464Z,101259.66
2018-09-30T21:07:15.800Z,101256.69
2018-09-30T21:09:44.145Z,101251.97
2018-09-30T21:12:12.530Z,101245.88
2018-09-30T21:14:40.897Z,101257.66
2018-09-30T21:17:10.269Z,101251.17
2018-09-30T21:20:41.880Z,101256.69
2018-09-30T21:23:10.249Z,101250.39
2018-09-30T21:25:39.676Z,101243.81
2018-09-30T21:28:08.072Z,101240.73
2018-09-30T21:30:36.431Z,101236.20
2018-09-30T21:33:04.808Z,101240.02
2018-09-30T21:35:33.400Z,101241.86
2018-09-30T21:38:01.952Z,101236.77
2018-09-30T21:40:30.822Z,101237.50
2018-09-30T21:42:59.222Z,101239.38
2018-09-30T21:45:27.576Z,101241.83
2018-09-30T21:47:55.916Z,101239.55
2018-09-30T21:50:24.317Z,101246.26
2018-09-30T21:52:52.798Z,101249.61
2018-09-30T21:55:21.209Z,101245.48
2018-09-30T21:57:51.986Z,101243.98
2018-09-30T22:00:27.510Z,101246.69
2018-09-30T22:02:58.468Z,101239.79
2018-09-30T22:05:30.093Z,101241.62
2018-09-30T22:08:01.260Z,101233.73
2018-09-30T22:10:31.301Z,101228.70
2018-09-30T22:13:04.136Z,101221.98
2018-09-30T22:15:33.544Z,101220.86
2018-09-30T22:18:01.973Z,101225.60
2018-09-30T22:20:30.386Z,101222.63
2018-09-30T22:22:58.729Z,101231.51
2018-09-30T22:25:27.132Z,101227.43
2018-09-30T22:27:55.561Z,101234.41
2018-09-30T22:30:24.230Z,101232.84
2018-09-30T22:32:52.609Z,101233.81
2018-09-30T22:35:21.004Z,101225.02
2018-09-30T22:37:49.428Z,101223.06
2018-09-30T22:40:17.878Z,101219.89
2018-09-30T22:42:46.229Z,101215.92
2018-09-30T22:45:14.621Z,101209.72
2018-09-30T22:47:42.972Z,101196.17
2018-09-30T22:50:12.345Z,101204.84
2018-09-30T22:52:40.721Z,101201.25
2018-09-30T22:55:09.085Z,101199.66
2018-09-30T22:57:38.872Z,101195.27
2018-09-30T23:00:07.805Z,101197.47
2018-09-30T23:02:36.213Z,101185.89
2018-09-30T23:05:06.736Z,101191.52
2018-09-30T23:07:35.444Z,101190.52
2018-09-30T23:10:06.460Z,101186.81
2018-09-30T23:12:34.864Z,101192.17
2018-09-30T23:15:03.244Z,101185.74
2018-09-30T23:17:31.729Z,101186.12
2018-09-30T23:20:00.208Z,101189.44
2018-09-30T23:22:28.551Z,101186.58
2018-09-30T23:24:57.071Z,101186.92
2018-09-30T23:27:27.417Z,101178.67
2018-09-30T23:29:56.669Z,101176.48
2018-09-30T23:32:25.303Z,101175.17
2018-09-30T23:34:53.656Z,101180.38
2018-09-30T23:37:22.005Z,101181.28
2018-09-30T23:39:50.341Z,101172.07
2018-09-30T23:42:18.696Z,101171.34
2018-09-30T23:44:47.039Z,101179.12
2018-09-30T23:47:16.303Z,101185.34
2018-09-30T23:49:45.049Z,101194.07
2018-09-30T23:52:13.416Z,101191.66
2018-09-30T23:54:42.768Z,101192.76
2018-09-30T23:57:11.242Z,101192.74
2018-09-30T23:59:39.685Z,101192.05
